Silver Wind — C6FG2 — position and weather

sailwx.info

Track history (hours):
 
Tides and Currents Weather Stations Pressure Air Temp Water Temp Dewpoint Dewpoint Depression Visibility Wind Speed Wind Dir Waves Ship Positions

Silver Wind

Operator: V Ships Leisure

Last reported at 2020-Jul-02 03:58 UTC. Time now 2020-Jul-02 15:52 UTC.
Position N 43°19' E 005°21'.

Length 156 m; draft 5.7 m.

Type: Passenger vessel. MMSI: 308814000.

Date/timePositionNaut miles runAvg speedWind from/ knotsBaromVisibWave heightAir tempDewpointWater temp
2020-Jul-02 03:58N 43°19' E 005°21'0 0.0
2020-Jul-02 03:22N 43°19' E 005°21'0 0.0
2020-Jul-01 13:28N 43°19' E 005°21'0 0.0
2020-Jun-30 11:58N 43°19' E 005°21'0 0.0
2020-Jun-29 05:22N 43°19' E 005°21'0 0.0
2020-Jun-29 04:28N 43°19' E 005°21'0 0.0
2020-Jun-28 14:28N 43°19' E 005°21'0 0.0
2020-Jun-28 13:10N 43°19' E 005°21'0 0.0
2020-Jun-28 11:55N 43°19' E 005°21'0 0.0
2020-Jun-28 01:19N 43°19' E 005°21'0 0.0
2020-Jun-27 22:07N 43°19' E 005°21'10 1.2
2020-Jun-27 14:00N 43°14' E 005°10'3 6.8
2020-Jun-27 13:30N 43°10' E 005°10'10 2.6
2020-Jun-27 09:30N 43°04' E 004°59'11 7.4
2020-Jun-27 08:00N 43°12' E 005°09'4 8.8
2020-Jun-27 07:30N 43°17' E 005°10'9 0.2
2020-Jun-25 16:07N 43°20' E 005°21'0 0.0
2020-Jun-25 14:16N 43°20' E 005°21'0 0.0
2020-Jun-25 12:43N 43°20' E 005°21'0 0.0
2020-Jun-25 12:25N 43°20' E 005°21'0 0.0
2020-Jun-25 11:58N 43°20' E 005°21'  
2020-Jun-23 05:30N 43°20' E 005°21'0 0.0
2020-Jun-23 05:00N 43°20' E 005°21'0 0.0
2020-Jun-23 04:00N 43°20' E 005°21'0 0.0
2020-Jun-23 03:00N 43°20' E 005°21'0 0.0
2020-Jun-23 01:30N 43°20' E 005°21'0 0.0
2020-Jun-22 23:30N 43°20' E 005°21'0 0.0
2020-Jun-22 21:30N 43°20' E 005°21'0 0.0
2020-Jun-22 21:00N 43°20' E 005°21'0 0.0
2020-Jun-22 16:30N 43°20' E 005°21'0 0.0
2020-Jun-22 14:30N 43°20' E 005°21'0 0.0
2020-Jun-22 13:58N 43°20' E 005°21'  
Track history (hours):
 
Tides and Currents Weather Stations Pressure Air Temp Water Temp Dewpoint Dewpoint Depression Visibility Wind Speed Wind Dir Waves Ship Positions

Silver Wind

Operator: V Ships Leisure

Last reported at 2020-Jul-02 03:58 UTC. Time now 2020-Jul-02 15:52 UTC.
Position N 43°19' E 005°21'.

Length 156 m; draft 5.7 m.

Type: Passenger vessel. MMSI: 308814000.

Date/timePositionNaut miles runAvg speedWind from/ knotsBaromVisibWave heightAir tempDewpointWater temp
2020-Jul-02 03:58N 43°19' E 005°21'0 0.0
2020-Jul-02 03:22N 43°19' E 005°21'0 0.0
2020-Jul-01 13:28N 43°19' E 005°21'0 0.0
2020-Jun-30 11:58N 43°19' E 005°21'0 0.0
2020-Jun-29 05:22N 43°19' E 005°21'0 0.0
2020-Jun-29 04:28N 43°19' E 005°21'0 0.0
2020-Jun-28 14:28N 43°19' E 005°21'0 0.0
2020-Jun-28 13:10N 43°19' E 005°21'0 0.0
2020-Jun-28 11:55N 43°19' E 005°21'0 0.0
2020-Jun-28 01:19N 43°19' E 005°21'0 0.0
2020-Jun-27 22:07N 43°19' E 005°21'10 1.2
2020-Jun-27 14:00N 43°14' E 005°10'3 6.8
2020-Jun-27 13:30N 43°10' E 005°10'10 2.6
2020-Jun-27 09:30N 43°04' E 004°59'11 7.4
2020-Jun-27 08:00N 43°12' E 005°09'4 8.8
2020-Jun-27 07:30N 43°17' E 005°10'9 0.2
2020-Jun-25 16:07N 43°20' E 005°21'0 0.0
2020-Jun-25 14:16N 43°20' E 005°21'0 0.0
2020-Jun-25 12:43N 43°20' E 005°21'0 0.0
2020-Jun-25 12:25N 43°20' E 005°21'0 0.0
2020-Jun-25 11:58N 43°20' E 005°21'  
2020-Jun-23 05:30N 43°20' E 005°21'0 0.0
2020-Jun-23 05:00N 43°20' E 005°21'0 0.0
2020-Jun-23 04:00N 43°20' E 005°21'0 0.0
2020-Jun-23 03:00N 43°20' E 005°21'0 0.0
2020-Jun-23 01:30N 43°20' E 005°21'0 0.0
2020-Jun-22 23:30N 43°20' E 005°21'0 0.0
2020-Jun-22 21:30N 43°20' E 005°21'0 0.0
2020-Jun-22 21:00N 43°20' E 005°21'0 0.0
2020-Jun-22 16:30N 43°20' E 005°21'0 0.0
2020-Jun-22 14:30N 43°20' E 005°21'0 0.0
2020-Jun-22 13:58N 43°20' E 005°21'  

Dump ship's entire track history